Time;durP1;ratioP1;P1;durP2;ratioP2;P2;SDS_P1;SDS_P2;PMS_P1;PMS_P2;Temp;Humidity;BMP_temperature;BMP_pressure;BME280_temperature;BME280_humidity;BME280_pressure;Samples;Min_cycle;Max_cycle;Signal;HPM_P1;HPM_P2
2023/05/20 07:46:24;;;;;;;;;24.50;22.75;;;;;;;;6200551;22;18796;-72
2023/05/20 07:48:49;;;;;;;;;25.25;24.00;;;;;;;;6310356;22;11443;-72
2023/05/20 07:51:14;;;;;;;;;23.50;20.25;;;;;;;;6312088;22;11571;-72
2023/05/20 07:53:39;;;;;;;;;27.00;25.50;;;;;;;;6312691;22;8787;-72
2023/05/20 07:56:05;;;;;;;;;21.50;19.75;;;;;;;;6312159;22;8764;-74
2023/05/20 07:58:30;;;;;;;;;19.50;15.50;;;;;;;;6313192;22;8855;-74
2023/05/20 08:00:56;;;;;;;;;22.25;20.50;;;;;;;;6312186;22;8785;-72
2023/05/20 08:03:22;;;;;;;;;21.75;20.75;;;;;;;;6312320;22;8781;-70
2023/05/20 08:05:47;;;;;;;;;24.25;20.50;;;;;;;;6311999;22;8795;-71
2023/05/20 08:08:12;;;;;;;;;11.00;11.00;;;;;;;;6311936;22;8773;-72
2023/05/20 08:10:37;;;;;;;;;29.00;24.50;;;;;;;;6312337;22;8772;-71
2023/05/20 08:13:02;;;;;;;;;20.00;20.00;;;;;;;;6284952;22;8905;-72
2023/05/20 08:15:28;;;;;;;;;21.00;21.00;;;;;;;;6312323;22;8806;-72
2023/05/20 08:17:53;;;;;;;;;18.25;18.25;;;;;;;;6312172;22;8773;-71
2023/05/20 08:20:19;;;;;;;;;19.25;18.25;;;;;;;;6312882;22;9639;-73
2023/05/20 08:22:44;;;;;;;;;18.75;17.50;;;;;;;;6312631;22;8729;-79
2023/05/20 08:25:09;;;;;;;;;18.00;16.75;;;;;;;;6312625;22;11638;-73
2023/05/20 08:27:35;;;;;;;;;21.00;17.75;;;;;;;;6283860;22;8765;-73
2023/05/20 08:30:01;;;;;;;;;20.50;19.25;;;;;;;;6310844;22;8846;-73
2023/05/20 08:32:26;;;;;;;;;27.25;23.75;;;;;;;;6312638;22;8795;-76
2023/05/20 08:34:51;;;;;;;;;24.00;22.75;;;;;;;;6313309;22;9648;-78
2023/05/20 08:37:16;;;;;;;;;21.75;20.50;;;;;;;;6284981;22;9678;-74
2023/05/20 08:39:43;;;;;;;;;25.00;24.50;;;;;;;;6312987;22;8756;-74
2023/05/20 08:42:10;;;;;;;;;20.25;17.00;;;;;;;;6312949;22;8745;-75
2023/05/20 08:44:35;;;;;;;;;22.75;21.75;;;;;;;;6312393;22;11556;-74
2023/05/20 08:47:02;;;;;;;;;23.50;21.75;;;;;;;;6311840;22;11427;-76
2023/05/20 08:49:27;;;;;;;;;20.25;18.25;;;;;;;;6313775;22;8782;-78
2023/05/20 08:51:53;;;;;;;;;16.50;15.00;;;;;;;;6312683;22;11389;-81
2023/05/20 08:54:19;;;;;;;;;17.75;17.25;;;;;;;;6312994;22;8760;-76
2023/05/20 08:56:45;;;;;;;;;17.75;17.00;;;;;;;;6313058;22;8739;-76
2023/05/20 08:59:10;;;;;;;;;11.25;10.25;;;;;;;;6312376;22;11405;-76
2023/05/20 09:01:44;;;;;;;;;13.00;12.25;;;;;;;;6284678;22;8752;-83
2023/05/20 09:04:09;;;;;;;;;16.00;14.75;;;;;;;;6312830;22;8725;-80
2023/05/20 09:06:44;;;;;;;;;16.00;16.00;;;;;;;;6312808;22;11515;-74
2023/05/20 09:09:13;;;;;;;;;14.00;13.00;;;;;;;;6312461;22;8732;-76
2023/05/20 09:11:39;;;;;;;;;11.25;11.25;;;;;;;;6312333;22;11364;-73
2023/05/20 09:14:04;;;;;;;;;11.00;10.00;;;;;;;;6312113;22;11378;-74
2023/05/20 09:16:30;;;;;;;;;12.25;12.25;;;;;;;;6312585;22;11477;-74
2023/05/20 09:18:55;;;;;;;;;6.75;6.75;;;;;;;;6312650;22;8752;-74
2023/05/20 09:21:24;;;;;;;;;11.25;11.00;;;;;;;;6312489;22;8784;-74
2023/05/20 09:23:52;;;;;;;;;13.25;12.25;;;;;;;;6312363;22;8728;-75
2023/05/20 09:26:17;;;;;;;;;10.50;10.50;;;;;;;;6311755;22;11298;-75
2023/05/20 09:28:42;;;;;;;;;10.75;10.25;;;;;;;;6312460;22;11357;-72
2023/05/20 09:31:07;;;;;;;;;12.00;12.00;;;;;;;;6312644;22;8744;-73
2023/05/20 09:33:34;;;;;;;;;14.00;13.50;;;;;;;;6311942;22;8768;-72
2023/05/20 09:36:01;;;;;;;;;11.50;11.00;;;;;;;;6312471;22;8737;-71
2023/05/20 09:38:26;;;;;;;;;11.00;11.00;;;;;;;;6304609;22;11386;-70
2023/05/20 09:40:51;;;;;;;;;11.00;10.00;;;;;;;;6311242;22;11368;-71
2023/05/20 09:43:17;;;;;;;;;11.25;11.00;;;;;;;;6311909;22;8786;-73
2023/05/20 09:45:42;;;;;;;;;17.25;14.75;;;;;;;;6283633;22;10007;-70
2023/05/20 09:48:09;;;;;;;;;11.50;10.00;;;;;;;;6311057;22;8771;-74
2023/05/20 09:50:35;;;;;;;;;10.75;10.50;;;;;;;;6312151;22;8755;-74
2023/05/20 09:53:01;;;;;;;;;12.00;11.75;;;;;;;;6284123;22;11430;-75
2023/05/20 09:55:26;;;;;;;;;10.00;8.75;;;;;;;;6311685;22;11349;-76
2023/05/20 09:57:52;;;;;;;;;9.00;9.00;;;;;;;;6311702;22;8776;-75
2023/05/20 10:00:20;;;;;;;;;17.50;14.25;;;;;;;;6284395;22;8748;-75
2023/05/20 10:02:47;;;;;;;;;10.25;10.25;;;;;;;;6312074;22;12173;-75
2023/05/20 10:05:17;;;;;;;;;16.50;13.00;;;;;;;;6312610;22;11437;-75
2023/05/20 10:08:06;;;;;;;;;12.50;12.00;;;;;;;;6312717;22;11364;-75
2023/05/20 10:10:36;;;;;;;;;9.50;8.75;;;;;;;;6185240;23;11288;-75
2023/05/20 10:13:12;;;;;;;;;7.75;6.25;;;;;;;;6185924;23;11061;-74
2023/05/20 10:15:46;;;;;;;;;9.75;8.50;;;;;;;;6185678;23;11101;-74
2023/05/20 10:18:14;;;;;;;;;12.25;10.50;;;;;;;;6186011;23;11060;-74
2023/05/20 10:20:46;;;;;;;;;9.25;7.75;;;;;;;;6186384;23;11106;-75
2023/05/20 10:23:19;;;;;;;;;8.00;7.00;;;;;;;;6186336;23;11065;-75
2023/05/20 10:25:49;;;;;;;;;8.25;8.25;;;;;;;;6186178;23;11068;-76
2023/05/20 10:28:15;;;;;;;;;10.25;9.25;;;;;;;;6185093;23;11173;-76
2023/05/20 10:30:48;;;;;;;;;10.00;10.00;;;;;;;;6185710;23;11106;-76
2023/05/20 10:33:15;;;;;;;;;9.50;8.25;;;;;;;;6185994;23;8739;-76
2023/05/20 10:35:45;;;;;;;;;9.50;9.50;;;;;;;;6185766;23;11428;-76
2023/05/20 10:38:11;;;;;;;;;8.50;7.50;;;;;;;;6185608;23;11185;-76
2023/05/20 10:40:37;;;;;;;;;11.25;9.50;;;;;;;;6185795;23;10967;-76
2023/05/20 10:43:12;;;;;;;;;3.50;3.50;;;;;;;;6185812;23;8758;-76
2023/05/20 10:45:51;;;;;;;;;11.50;11.50;;;;;;;;6185722;23;8761;-76
2023/05/20 10:48:20;;;;;;;;;10.75;10.00;;;;;;;;6284865;22;11331;-75
2023/05/20 10:50:45;;;;;;;;;4.75;4.75;;;;;;;;6312106;22;11860;-76
2023/05/20 10:53:11;;;;;;;;;10.00;8.00;;;;;;;;6312811;22;10976;-76
2023/05/20 10:55:37;;;;;;;;;9.75;9.25;;;;;;;;6313027;22;9476;-76
2023/05/20 10:58:03;;;;;;;;;12.50;12.00;;;;;;;;6313215;22;8755;-75
2023/05/20 11:00:28;;;;;;;;;12.00;11.00;;;;;;;;6313339;22;11933;-75
2023/05/20 11:02:54;;;;;;;;;10.00;8.00;;;;;;;;6313272;22;8744;-74
2023/05/20 11:05:19;;;;;;;;;8.50;8.25;;;;;;;;6312905;22;8769;-73
2023/05/20 11:07:44;;;;;;;;;9.50;8.75;;;;;;;;6310948;22;8768;-74
2023/05/20 11:10:10;;;;;;;;;8.75;7.75;;;;;;;;6313019;22;8875;-74
2023/05/20 11:12:35;;;;;;;;;12.50;7.50;;;;;;;;6312986;22;8918;-74
2023/05/20 11:15:01;;;;;;;;;6.75;6.75;;;;;;;;6313263;22;8780;-74
2023/05/20 11:17:26;;;;;;;;;3.50;3.50;;;;;;;;6312922;22;8758;-73
2023/05/20 11:19:52;;;;;;;;;6.25;6.25;;;;;;;;6312971;22;10916;-73
2023/05/20 11:22:17;;;;;;;;;8.75;8.00;;;;;;;;6313673;22;8752;-72
2023/05/20 11:24:42;;;;;;;;;7.75;7.75;;;;;;;;6313089;22;8787;-74
2023/05/20 11:27:08;;;;;;;;;5.75;5.00;;;;;;;;6285130;22;8787;-73
2023/05/20 11:29:33;;;;;;;;;6.50;6.50;;;;;;;;6312539;22;8740;-76
2023/05/20 11:32:00;;;;;;;;;5.00;4.00;;;;;;;;6313129;22;8736;-72
2023/05/20 11:34:25;;;;;;;;;3.75;3.75;;;;;;;;6312671;22;8784;-75
2023/05/20 11:36:57;;;;;;;;;6.50;6.50;;;;;;;;6312694;22;10862;-73
2023/05/20 11:39:23;;;;;;;;;7.75;7.00;;;;;;;;6313700;22;8778;-74
2023/05/20 11:41:48;;;;;;;;;8.50;8.50;;;;;;;;6313768;22;10901;-77
2023/05/20 11:44:13;;;;;;;;;12.75;10.00;;;;;;;;6313347;22;8763;-75
2023/05/20 11:46:45;;;;;;;;;8.50;7.50;;;;;;;;6312571;22;9588;-77
2023/05/20 11:49:12;;;;;;;;;6.50;6.50;;;;;;;;6311621;22;8748;-77
2023/05/20 11:51:38;;;;;;;;;6.25;6.25;;;;;;;;6311879;22;10943;-75
2023/05/20 11:54:04;;;;;;;;;6.75;6.75;;;;;;;;6311434;22;11058;-79
2023/05/20 11:56:30;;;;;;;;;8.50;8.50;;;;;;;;6313093;22;8743;-76
2023/05/20 11:58:58;;;;;;;;;5.75;5.75;;;;;;;;6312285;22;10900;-77
2023/05/20 12:01:24;;;;;;;;;5.00;5.00;;;;;;;;6312397;22;8733;-78
2023/05/20 12:03:49;;;;;;;;;7.25;7.25;;;;;;;;6311410;22;10857;-74
2023/05/20 12:06:15;;;;;;;;;6.00;6.00;;;;;;;;6312264;22;8791;-74
2023/05/20 12:08:40;;;;;;;;;4.75;4.75;;;;;;;;6311255;22;8736;-74
2023/05/20 12:11:06;;;;;;;;;4.75;4.75;;;;;;;;6312416;22;10711;-76
2023/05/20 12:13:31;;;;;;;;;6.50;6.50;;;;;;;;6311999;22;9343;-78
2023/05/20 12:15:56;;;;;;;;;7.25;7.25;;;;;;;;6312017;22;8814;-79
2023/05/20 12:18:21;;;;;;;;;8.00;6.50;;;;;;;;6312515;22;8825;-78
2023/05/20 12:20:46;;;;;;;;;6.25;6.25;;;;;;;;6312170;22;9489;-83
2023/05/20 12:23:12;;;;;;;;;4.00;4.00;;;;;;;;6311595;22;8740;-80
2023/05/20 12:25:37;;;;;;;;;8.00;7.00;;;;;;;;6312030;22;8796;-77
2023/05/20 12:28:02;;;;;;;;;6.50;6.25;;;;;;;;6284680;22;8820;-78
2023/05/20 12:30:27;;;;;;;;;14.75;10.00;;;;;;;;6313594;22;9477;-89
2023/05/20 12:32:53;;;;;;;;;6.00;6.00;;;;;;;;6312791;22;8756;-77
2023/05/20 12:35:38;;;;;;;;;8.50;8.50;;;;;;;;6311592;22;8782;-77
2023/05/20 12:38:04;;;;;;;;;11.00;5.50;;;;;;;;6310807;22;8736;-77
2023/05/20 12:40:29;;;;;;;;;7.75;7.75;;;;;;;;6312140;22;10739;-78
2023/05/20 12:42:54;;;;;;;;;6.25;5.50;;;;;;;;6312548;22;8756;-77
2023/05/20 12:45:19;;;;;;;;;7.25;6.50;;;;;;;;6311423;22;8787;-77
2023/05/20 12:47:45;;;;;;;;;7.50;7.50;;;;;;;;6311000;22;8802;-76
2023/05/20 12:50:10;;;;;;;;;7.50;7.50;;;;;;;;6312152;22;9473;-76
2023/05/20 12:52:35;;;;;;;;;8.75;8.00;;;;;;;;6311785;22;8744;-77
2023/05/20 12:55:00;;;;;;;;;6.75;6.75;;;;;;;;6311755;22;8748;-76
2023/05/20 12:57:25;;;;;;;;;6.50;6.50;;;;;;;;6284369;22;8772;-77
2023/05/20 12:59:51;;;;;;;;;8.00;8.00;;;;;;;;6311929;22;8744;-80
2023/05/20 13:02:16;;;;;;;;;6.25;4.75;;;;;;;;6311675;22;8766;-75
2023/05/20 13:04:41;;;;;;;;;9.50;8.00;;;;;;;;6282361;22;9137;-74
2023/05/20 13:07:06;;;;;;;;;7.25;7.25;;;;;;;;6283217;22;8912;-76
2023/05/20 13:09:33;;;;;;;;;6.50;6.50;;;;;;;;6311461;22;8744;-75
2023/05/20 13:11:58;;;;;;;;;6.25;6.00;;;;;;;;6311297;22;8747;-76
2023/05/20 13:14:23;;;;;;;;;10.00;10.00;;;;;;;;6311457;22;10831;-76
2023/05/20 13:16:53;;;;;;;;;9.25;9.25;;;;;;;;6311415;22;8863;-74
2023/05/20 13:19:18;;;;;;;;;6.75;6.75;;;;;;;;6311892;22;8775;-75
2023/05/20 13:21:43;;;;;;;;;7.75;7.75;;;;;;;;6311759;22;10662;-75
2023/05/20 13:24:08;;;;;;;;;10.00;7.25;;;;;;;;6284125;22;8948;-75
2023/05/20 13:26:33;;;;;;;;;7.50;7.00;;;;;;;;6312152;22;8792;-75
2023/05/20 13:28:58;;;;;;;;;6.50;6.50;;;;;;;;6311701;22;8748;-75
2023/05/20 13:31:25;;;;;;;;;7.75;7.75;;;;;;;;6311488;22;8878;-75
2023/05/20 13:33:51;;;;;;;;;7.25;6.75;;;;;;;;6311883;22;10887;-75
2023/05/20 13:36:17;;;;;;;;;10.75;9.75;;;;;;;;6311741;22;8737;-75
2023/05/20 13:38:42;;;;;;;;;9.50;6.50;;;;;;;;6311683;22;10864;-75
2023/05/20 13:41:07;;;;;;;;;5.50;5.00;;;;;;;;6312039;22;8748;-75
2023/05/20 13:43:33;;;;;;;;;6.00;6.00;;;;;;;;6311740;22;8841;-75
2023/05/20 13:45:58;;;;;;;;;4.25;4.25;;;;;;;;6311538;22;8764;-75
2023/05/20 13:48:23;;;;;;;;;7.50;7.25;;;;;;;;6311401;22;8767;-75
2023/05/20 13:50:48;;;;;;;;;8.25;6.75;;;;;;;;6311500;22;8830;-74
2023/05/20 13:53:13;;;;;;;;;8.25;7.75;;;;;;;;6309705;22;9462;-74
2023/05/20 13:55:39;;;;;;;;;1.25;1.25;;;;;;;;6310931;22;8764;-73
2023/05/20 13:58:07;;;;;;;;;7.50;7.50;;;;;;;;6311041;22;8740;-75
2023/05/20 14:00:32;;;;;;;;;8.25;7.25;;;;;;;;6312086;22;8709;-75
2023/05/20 14:02:59;;;;;;;;;7.75;7.75;;;;;;;;6311563;22;10750;-76
2023/05/20 14:05:25;;;;;;;;;7.00;6.75;;;;;;;;6311421;22;9478;-75
2023/05/20 14:07:50;;;;;;;;;7.00;6.75;;;;;;;;6311663;22;10881;-74
2023/05/20 14:10:15;;;;;;;;;10.00;7.00;;;;;;;;6311734;22;8756;-75
2023/05/20 14:12:41;;;;;;;;;11.75;9.25;;;;;;;;6312022;22;8737;-76
2023/05/20 14:15:07;;;;;;;;;9.00;7.75;;;;;;;;6311079;22;8732;-75
2023/05/20 14:17:32;;;;;;;;;9.75;9.00;;;;;;;;6310877;22;10863;-75
2023/05/20 14:19:57;;;;;;;;;9.00;9.00;;;;;;;;6309322;22;8763;-75
2023/05/20 14:22:22;;;;;;;;;8.00;8.00;;;;;;;;6311192;22;8794;-76
2023/05/20 14:24:47;;;;;;;;;10.00;9.00;;;;;;;;6284350;22;8759;-76
2023/05/20 14:27:13;;;;;;;;;8.75;8.75;;;;;;;;6311527;22;8748;-75
2023/05/20 14:29:39;;;;;;;;;10.50;9.00;;;;;;;;6313102;22;9418;-75
2023/05/20 14:32:04;;;;;;;;;9.75;7.50;;;;;;;;6313135;22;11000;-76
2023/05/20 14:34:29;;;;;;;;;8.50;8.50;;;;;;;;6311969;22;8764;-75
2023/05/20 14:36:55;;;;;;;;;11.00;11.00;;;;;;;;6312814;22;8756;-75
2023/05/20 14:39:21;;;;;;;;;7.50;7.00;;;;;;;;6284494;22;8736;-76
2023/05/20 14:41:46;;;;;;;;;10.50;10.50;;;;;;;;6312628;22;11036;-76
2023/05/20 14:44:11;;;;;;;;;9.75;7.75;;;;;;;;6312352;22;8811;-74
2023/05/20 14:46:36;;;;;;;;;10.25;10.25;;;;;;;;6313147;22;8810;-74
2023/05/20 14:49:02;;;;;;;;;12.75;10.50;;;;;;;;6312013;22;8779;-74
2023/05/20 14:51:27;;;;;;;;;9.25;8.25;;;;;;;;6312567;22;8842;-73
2023/05/20 14:53:52;;;;;;;;;10.00;10.00;;;;;;;;6312411;22;8794;-74
2023/05/20 14:56:17;;;;;;;;;9.25;9.25;;;;;;;;6312524;22;9505;-75
2023/05/20 14:58:42;;;;;;;;;12.50;11.00;;;;;;;;6283320;22;8768;-74
2023/05/20 15:01:08;;;;;;;;;9.00;9.00;;;;;;;;6312702;22;8768;-74
2023/05/20 15:03:33;;;;;;;;;10.25;10.25;;;;;;;;6312218;22;8768;-74
2023/05/20 15:05:58;;;;;;;;;10.00;10.00;;;;;;;;6312854;22;8931;-75
2023/05/20 15:08:23;;;;;;;;;9.00;9.00;;;;;;;;6312308;22;8752;-74
2023/05/20 15:10:49;;;;;;;;;9.75;7.50;;;;;;;;6312591;22;8748;-74
2023/05/20 15:13:14;;;;;;;;;10.75;8.75;;;;;;;;6311978;22;8786;-74
2023/05/20 15:15:40;;;;;;;;;10.25;9.50;;;;;;;;6312543;22;9460;-74
2023/05/20 15:18:05;;;;;;;;;11.75;11.50;;;;;;;;6312850;22;9492;-74
2023/05/20 15:20:30;;;;;;;;;12.00;10.50;;;;;;;;6311958;22;8789;-74
2023/05/20 15:22:55;;;;;;;;;9.00;9.00;;;;;;;;6285541;22;8768;-77
2023/05/20 15:25:20;;;;;;;;;9.00;9.00;;;;;;;;6312550;22;8747;-77
2023/05/20 15:27:46;;;;;;;;;9.75;9.75;;;;;;;;6312068;22;8859;-77
2023/05/20 15:30:11;;;;;;;;;9.75;8.50;;;;;;;;6311239;22;9465;-78
2023/05/20 15:32:36;;;;;;;;;7.75;7.75;;;;;;;;6311311;22;8744;-82
2023/05/20 15:35:03;;;;;;;;;8.50;6.50;;;;;;;;6310987;22;8858;-81
2023/05/20 15:37:28;;;;;;;;;9.75;9.75;;;;;;;;6312040;22;8736;-83
2023/05/20 15:39:53;;;;;;;;;9.00;7.50;;;;;;;;6285378;22;10972;-83
2023/05/20 15:42:20;;;;;;;;;8.00;7.75;;;;;;;;6313877;22;8796;-78
2023/05/20 15:44:45;;;;;;;;;8.25;8.25;;;;;;;;6312222;22;8759;-78
2023/05/20 15:47:10;;;;;;;;;8.75;8.75;;;;;;;;6310927;22;10777;-78
2023/05/20 15:49:36;;;;;;;;;8.00;8.00;;;;;;;;6312698;22;8799;-78
2023/05/20 15:52:01;;;;;;;;;7.50;7.50;;;;;;;;6313375;22;8768;-78
2023/05/20 15:54:26;;;;;;;;;7.25;5.75;;;;;;;;6312759;22;8740;-78
2023/05/20 15:56:51;;;;;;;;;7.50;7.00;;;;;;;;6285196;22;8775;-79
2023/05/20 15:59:17;;;;;;;;;8.00;7.25;;;;;;;;6311599;22;8763;-79
2023/05/20 16:01:42;;;;;;;;;10.50;10.50;;;;;;;;6282456;22;9664;-83
2023/05/20 16:04:07;;;;;;;;;8.00;8.00;;;;;;;;6284585;22;8874;-80
2023/05/20 16:06:33;;;;;;;;;8.25;8.25;;;;;;;;6312798;22;8792;-78
2023/05/20 16:08:58;;;;;;;;;8.00;8.00;;;;;;;;6311068;22;8748;-78
2023/05/20 16:11:23;;;;;;;;;13.00;11.00;;;;;;;;6311725;22;8767;-78
2023/05/20 16:13:48;;;;;;;;;13.75;11.25;;;;;;;;6312352;22;8752;-76
2023/05/20 16:16:15;;;;;;;;;10.25;10.25;;;;;;;;6312597;22;8748;-84
2023/05/20 16:18:40;;;;;;;;;2.50;2.50;;;;;;;;6311788;22;8740;-76
2023/05/20 16:21:06;;;;;;;;;8.25;7.25;;;;;;;;6312342;22;11001;-77
2023/05/20 16:23:32;;;;;;;;;14.25;10.25;;;;;;;;6311224;22;8825;-76
2023/05/20 16:25:57;;;;;;;;;9.75;9.75;;;;;;;;6311880;22;10867;-78
2023/05/20 16:28:24;;;;;;;;;9.25;7.75;;;;;;;;6313834;22;8834;-79
2023/05/20 16:30:49;;;;;;;;;7.25;6.00;;;;;;;;6312795;22;8775;-80
2023/05/20 16:33:16;;;;;;;;;9.00;9.00;;;;;;;;6314251;22;10730;-84
2023/05/20 16:35:41;;;;;;;;;8.00;8.00;;;;;;;;6316153;22;8709;-83
2023/05/20 16:38:06;;;;;;;;;8.75;8.75;;;;;;;;6311867;22;10895;-79
2023/05/20 16:40:31;;;;;;;;;7.25;5.75;;;;;;;;6311734;22;8815;-84
2023/05/20 16:42:57;;;;;;;;;9.00;9.00;;;;;;;;6311254;22;8752;-72
2023/05/20 16:45:22;;;;;;;;;8.00;7.50;;;;;;;;6310982;22;8795;-77
2023/05/20 16:47:47;;;;;;;;;10.75;10.75;;;;;;;;6311224;22;8819;-79
2023/05/20 16:50:12;;;;;;;;;7.75;5.75;;;;;;;;6284297;22;9592;-80
2023/05/20 16:52:37;;;;;;;;;8.25;8.25;;;;;;;;6310808;22;8857;-82
2023/05/20 16:55:03;;;;;;;;;10.00;10.00;;;;;;;;6311200;22;8771;-80
2023/05/20 16:57:29;;;;;;;;;9.25;9.25;;;;;;;;6313109;22;8838;-84
2023/05/20 16:59:54;;;;;;;;;9.25;9.25;;;;;;;;6311097;22;12166;-82
2023/05/20 17:02:20;;;;;;;;;9.50;9.50;;;;;;;;6312223;22;8760;-83
2023/05/20 17:04:45;;;;;;;;;9.25;9.25;;;;;;;;6313355;22;8806;-83
2023/05/20 17:07:12;;;;;;;;;5.75;5.75;;;;;;;;6312601;22;8851;-83
2023/05/20 17:09:37;;;;;;;;;7.00;7.00;;;;;;;;6312450;22;8778;-81
2023/05/20 17:12:03;;;;;;;;;8.25;8.25;;;;;;;;6312489;22;11712;-80
2023/05/20 17:14:28;;;;;;;;;11.00;9.75;;;;;;;;6311800;22;8767;-82
2023/05/20 17:16:53;;;;;;;;;12.75;11.50;;;;;;;;6284309;22;8895;-81
2023/05/20 17:19:18;;;;;;;;;9.00;6.00;;;;;;;;6311851;22;8802;-82
2023/05/20 17:21:44;;;;;;;;;8.00;8.00;;;;;;;;6312000;22;8748;-80
2023/05/20 17:24:09;;;;;;;;;8.00;8.00;;;;;;;;6310843;22;8764;-81
2023/05/20 17:26:35;;;;;;;;;7.75;7.75;;;;;;;;6312310;22;8812;-79
2023/05/20 17:29:00;;;;;;;;;8.00;8.00;;;;;;;;6312255;22;8744;-80
2023/05/20 17:31:25;;;;;;;;;8.75;7.50;;;;;;;;6284656;22;8760;-79
2023/05/20 17:33:50;;;;;;;;;13.00;13.00;;;;;;;;6311469;22;8771;-77
2023/05/20 17:36:16;;;;;;;;;9.50;8.50;;;;;;;;6311364;22;8768;-79
2023/05/20 17:38:41;;;;;;;;;7.25;7.25;;;;;;;;6312317;22;8756;-82
2023/05/20 17:41:06;;;;;;;;;8.00;8.00;;;;;;;;6312500;22;8760;-85
2023/05/20 17:43:31;;;;;;;;;7.50;6.50;;;;;;;;6312075;22;8768;-83
2023/05/20 17:45:57;;;;;;;;;10.75;8.75;;;;;;;;6312038;22;8779;-84
2023/05/20 17:48:22;;;;;;;;;10.00;9.75;;;;;;;;6310763;22;8788;-80
2023/05/20 17:50:47;;;;;;;;;9.00;7.75;;;;;;;;6311040;22;8744;-77
2023/05/20 17:53:12;;;;;;;;;8.50;8.50;;;;;;;;6311465;22;8772;-78
2023/05/20 17:55:38;;;;;;;;;9.75;7.75;;;;;;;;6309520;22;8736;-81
2023/05/20 17:58:04;;;;;;;;;10.75;7.00;;;;;;;;6309812;22;8835;-81
2023/05/20 18:00:29;;;;;;;;;9.50;8.00;;;;;;;;6310888;22;8733;-78
2023/05/20 18:02:57;;;;;;;;;10.25;8.75;;;;;;;;6312871;22;8767;-78
2023/05/20 18:05:23;;;;;;;;;7.50;6.50;;;;;;;;6284262;22;9235;-78
2023/05/20 18:07:48;;;;;;;;;10.50;9.25;;;;;;;;6311474;22;11061;-75
2023/05/20 18:10:13;;;;;;;;;7.00;7.00;;;;;;;;6312549;22;8794;-70
2023/05/20 18:12:38;;;;;;;;;5.75;5.75;;;;;;;;6312270;22;8866;-70
2023/05/20 18:15:05;;;;;;;;;8.25;8.25;;;;;;;;6311644;22;8748;-71
2023/05/20 18:17:30;;;;;;;;;9.00;9.00;;;;;;;;6311695;22;8758;-71
2023/05/20 18:19:55;;;;;;;;;8.00;8.00;;;;;;;;6311875;22;11889;-71
2023/05/20 18:22:20;;;;;;;;;9.75;9.25;;;;;;;;6312227;22;9544;-72
2023/05/20 18:24:45;;;;;;;;;8.75;8.75;;;;;;;;6311226;22;8752;-72
2023/05/20 18:27:11;;;;;;;;;5.50;5.50;;;;;;;;6310596;22;8744;-72
2023/05/20 18:29:36;;;;;;;;;9.50;9.50;;;;;;;;6311266;22;9359;-72
2023/05/20 18:32:01;;;;;;;;;8.25;7.00;;;;;;;;6311423;22;9544;-71
2023/05/20 18:34:27;;;;;;;;;9.00;9.00;;;;;;;;6311974;22;8744;-72
2023/05/20 18:36:52;;;;;;;;;11.25;11.25;;;;;;;;6311097;22;8748;-72
2023/05/20 18:39:20;;;;;;;;;12.50;11.50;;;;;;;;6310499;22;8756;-71
2023/05/20 18:41:46;;;;;;;;;9.25;8.50;;;;;;;;6311657;22;8802;-72
2023/05/20 18:44:11;;;;;;;;;8.00;8.00;;;;;;;;6311378;22;10898;-73
2023/05/20 18:46:36;;;;;;;;;9.50;9.50;;;;;;;;6309886;22;9529;-72
2023/05/20 18:49:02;;;;;;;;;11.00;8.75;;;;;;;;6310903;22;8776;-70
2023/05/20 18:51:31;;;;;;;;;8.00;8.00;;;;;;;;6312199;22;8752;-72
2023/05/20 18:53:57;;;;;;;;;11.50;10.50;;;;;;;;6310876;22;8843;-72
2023/05/20 18:56:22;;;;;;;;;9.00;9.00;;;;;;;;6311460;22;11198;-70
2023/05/20 18:58:47;;;;;;;;;10.50;10.00;;;;;;;;6283731;22;9509;-68
2023/05/20 19:01:12;;;;;;;;;10.00;10.00;;;;;;;;6282561;22;8815;-67
2023/05/20 19:03:37;;;;;;;;;8.50;8.50;;;;;;;;6311039;22;8807;-68
2023/05/20 19:06:03;;;;;;;;;9.50;9.50;;;;;;;;6310496;22;8791;-65
2023/05/20 19:08:28;;;;;;;;;10.75;10.00;;;;;;;;6311437;22;8744;-66
2023/05/20 19:10:53;;;;;;;;;10.00;9.00;;;;;;;;6311297;22;8805;-66
2023/05/20 19:13:18;;;;;;;;;12.25;10.00;;;;;;;;6310745;22;8756;-66
2023/05/20 19:15:44;;;;;;;;;9.00;9.00;;;;;;;;6312365;22;8756;-67
2023/05/20 19:18:10;;;;;;;;;8.25;7.75;;;;;;;;6312212;22;8728;-70
2023/05/20 19:20:35;;;;;;;;;6.75;6.75;;;;;;;;6312451;22;8744;-72
2023/05/20 19:23:01;;;;;;;;;8.75;8.00;;;;;;;;6311933;22;9999;-73
2023/05/20 19:25:26;;;;;;;;;13.25;13.25;;;;;;;;6312793;22;9553;-70
2023/05/20 19:27:51;;;;;;;;;11.50;11.50;;;;;;;;6312606;22;10850;-71
2023/05/20 19:30:17;;;;;;;;;13.25;12.00;;;;;;;;6311881;22;8740;-70
2023/05/20 19:32:42;;;;;;;;;9.50;9.50;;;;;;;;6283775;22;9692;-73
2023/05/20 19:35:07;;;;;;;;;11.00;11.00;;;;;;;;6313213;22;8790;-75
2023/05/20 19:37:32;;;;;;;;;13.00;13.00;;;;;;;;6312014;22;8764;-75
2023/05/20 19:39:58;;;;;;;;;11.00;9.75;;;;;;;;6312165;22;8756;-75
2023/05/20 19:42:23;;;;;;;;;12.75;10.75;;;;;;;;6312693;22;8786;-79
2023/05/20 19:44:48;;;;;;;;;11.50;11.50;;;;;;;;6317503;22;8760;-88
2023/05/20 19:47:13;;;;;;;;;12.00;12.00;;;;;;;;6313517;22;8851;-79
2023/05/20 19:49:38;;;;;;;;;12.25;11.00;;;;;;;;6314454;22;8895;-78
2023/05/20 19:52:05;;;;;;;;;14.00;13.00;;;;;;;;6284578;22;10136;-76
2023/05/20 19:54:30;;;;;;;;;12.75;12.75;;;;;;;;6284274;22;8839;-79
2023/05/20 19:56:55;;;;;;;;;15.25;13.25;;;;;;;;6311863;22;12156;-76
2023/05/20 19:59:20;;;;;;;;;10.75;10.75;;;;;;;;6311855;22;8774;-73
2023/05/20 20:01:46;;;;;;;;;13.50;12.50;;;;;;;;6312063;22;8751;-73
2023/05/20 20:04:12;;;;;;;;;10.75;10.00;;;;;;;;6311554;22;8737;-72
2023/05/20 20:06:37;;;;;;;;;11.00;10.75;;;;;;;;6312089;22;9461;-74
2023/05/20 20:09:03;;;;;;;;;12.00;10.75;;;;;;;;6312956;22;8772;-74
2023/05/20 20:11:28;;;;;;;;;13.00;13.00;;;;;;;;6284715;22;8725;-74
2023/05/20 20:13:54;;;;;;;;;8.25;7.25;;;;;;;;6312268;22;11869;-75
2023/05/20 20:16:19;;;;;;;;;12.00;12.00;;;;;;;;6311792;22;8736;-74
2023/05/20 20:18:45;;;;;;;;;12.00;12.00;;;;;;;;6312453;22;8787;-74
2023/05/20 20:21:10;;;;;;;;;12.00;11.75;;;;;;;;6311754;22;8756;-73
2023/05/20 20:23:36;;;;;;;;;11.75;11.75;;;;;;;;6311657;22;8790;-73
2023/05/20 20:26:02;;;;;;;;;12.25;12.25;;;;;;;;6311129;22;9501;-73
2023/05/20 20:28:27;;;;;;;;;10.25;10.25;;;;;;;;6312063;22;10840;-74
2023/05/20 20:30:52;;;;;;;;;12.75;12.75;;;;;;;;6312750;22;8818;-74
2023/05/20 20:33:18;;;;;;;;;11.00;11.00;;;;;;;;6311975;22;8810;-74
2023/05/20 20:35:43;;;;;;;;;8.50;8.50;;;;;;;;6312668;22;8748;-73
2023/05/20 20:38:08;;;;;;;;;11.50;11.50;;;;;;;;6312470;22;8736;-74
2023/05/20 20:40:38;;;;;;;;;11.75;11.00;;;;;;;;6312535;22;8752;-75
2023/05/20 20:43:03;;;;;;;;;10.50;10.50;;;;;;;;6284852;22;9438;-75
2023/05/20 20:45:28;;;;;;;;;13.00;13.00;;;;;;;;6312223;22;10926;-74
2023/05/20 20:47:54;;;;;;;;;13.00;12.00;;;;;;;;6312014;22;8767;-75
2023/05/20 20:50:20;;;;;;;;;12.50;12.00;;;;;;;;6312730;22;9532;-73
2023/05/20 20:52:45;;;;;;;;;11.50;10.25;;;;;;;;6312606;22;11469;-74
2023/05/20 20:55:11;;;;;;;;;12.75;12.75;;;;;;;;6311991;22;8841;-73
2023/05/20 20:57:36;;;;;;;;;13.00;11.75;;;;;;;;6312251;22;8736;-73
2023/05/20 21:00:14;;;;;;;;;11.00;10.75;;;;;;;;6312747;22;9511;-74
2023/05/20 21:02:40;;;;;;;;;13.25;13.25;;;;;;;;6312847;22;8740;-73
2023/05/20 21:05:05;;;;;;;;;10.25;10.25;;;;;;;;6284362;22;11522;-73
2023/05/20 21:07:31;;;;;;;;;10.00;10.00;;;;;;;;6312157;22;8736;-74
2023/05/20 21:09:56;;;;;;;;;13.00;10.00;;;;;;;;6312609;22;8750;-73
2023/05/20 21:12:21;;;;;;;;;9.00;9.00;;;;;;;;6312219;22;8752;-74
2023/05/20 21:14:46;;;;;;;;;8.00;8.00;;;;;;;;6312712;22;8752;-74
2023/05/20 21:17:12;;;;;;;;;13.50;13.50;;;;;;;;6312184;22;8772;-74
2023/05/20 21:19:37;;;;;;;;;10.00;10.00;;;;;;;;6312610;22;8759;-75
2023/05/20 21:22:02;;;;;;;;;9.75;9.50;;;;;;;;6284570;22;8889;-72
2023/05/20 21:24:28;;;;;;;;;11.25;10.75;;;;;;;;6312448;22;8748;-72
2023/05/20 21:26:53;;;;;;;;;14.25;13.00;;;;;;;;6312290;22;8752;-72
2023/05/20 21:29:18;;;;;;;;;14.25;14.25;;;;;;;;6312401;22;8862;-73
2023/05/20 21:31:43;;;;;;;;;11.75;11.75;;;;;;;;6312550;22;8741;-72
2023/05/20 21:34:08;;;;;;;;;15.50;13.00;;;;;;;;6311494;22;8810;-72
2023/05/20 21:36:33;;;;;;;;;16.00;16.00;;;;;;;;6311661;22;8737;-71
2023/05/20 21:38:59;;;;;;;;;12.50;11.50;;;;;;;;6311677;22;8766;-71
2023/05/20 21:41:24;;;;;;;;;13.00;11.75;;;;;;;;6284035;22;9501;-71
2023/05/20 21:43:49;;;;;;;;;11.50;11.50;;;;;;;;6312183;22;8858;-72
2023/05/20 21:46:14;;;;;;;;;9.00;9.00;;;;;;;;6311970;22;8767;-72
2023/05/20 21:48:39;;;;;;;;;10.00;9.25;;;;;;;;6283685;22;8838;-72
2023/05/20 21:51:05;;;;;;;;;13.50;12.00;;;;;;;;6312422;22;8779;-72
2023/05/20 22:40:32;;;;;;;;;9.25;9.25;;;;;;;;6311904;22;11357;-75
2023/05/20 22:42:57;;;;;;;;;10.50;9.50;;;;;;;;6311707;22;11116;-75
2023/05/20 22:45:22;;;;;;;;;13.50;10.50;;;;;;;;6311665;22;11232;-75
2023/05/20 22:47:47;;;;;;;;;13.25;13.25;;;;;;;;6310413;22;8871;-76
2023/05/20 22:50:12;;;;;;;;;12.50;10.25;;;;;;;;6311322;22;8779;-76
2023/05/20 22:52:40;;;;;;;;;12.60;12.60;;;;;;;;6313307;22;8829;-77
2023/05/20 22:55:06;;;;;;;;;12.75;10.25;;;;;;;;6313081;22;8741;-77
2023/05/20 22:57:31;;;;;;;;;12.00;12.00;;;;;;;;6313300;22;11359;-76
2023/05/20 22:59:57;;;;;;;;;13.00;12.00;;;;;;;;6312961;22;8871;-76
2023/05/20 23:02:22;;;;;;;;;14.50;13.00;;;;;;;;6312827;22;8866;-76
2023/05/20 23:04:47;;;;;;;;;14.25;11.00;;;;;;;;6312245;22;8809;-76